Barefoot — WDF2911 — position and weather

sailwx.info

Track history (hours):
 
Tides and Currents Weather Stations Pressure Air Temp Water Temp Dewpoint Dewpoint Depression Visibility Wind Speed Wind Dir Waves Ship Positions

Barefoot

Owner: Content, David W, Seattle, WA. More information available from US FCC via Universal Licensing System and Coast Guard Vessel Documentation Center.

Last reported at 2015-Apr-28 02:21 UTC. Time now 2015-May-03 09:46 UTC.
Position S 42°50' E 147°18'.

Length 13 m.

Type: Sailing vessel. MMSI: 367433390.

Date/timePositionNaut miles runAvg speedWind from/ knotsBaromVisibWave heightAir tempDewpointWater temp
2015-Apr-28 02:21S 42°50' E 147°18'  
2015-Apr-25 00:09S 42°50' E 147°18'0 0.0
2015-Apr-24 23:33S 42°50' E 147°18'0 0.0
2015-Apr-23 08:08S 42°50' E 147°18'0 0.0
2015-Apr-23 07:32S 42°50' E 147°18'0 0.0
2015-Apr-21 05:17S 42°50' E 147°18'2 2.9
2015-Apr-21 04:33S 42°51' E 147°20'5 5.3
2015-Apr-21 03:33S 42°56' E 147°22'5 5.2
2015-Apr-21 02:33S 43°01' E 147°21'5 5.1
2015-Apr-21 01:30S 43°06' E 147°18'2 0.5
2015-Apr-20 22:09S 43°07' E 147°20'0 0.0
2015-Apr-20 04:07S 43°08' E 147°20'1 2.2
2015-Apr-20 03:32S 43°08' E 147°18'2 2.4
2015-Apr-20 02:31S 43°08' E 147°15'4 3.8
2015-Apr-20 01:32S 43°08' E 147°20'0 0.1
2015-Apr-19 22:06S 43°07' E 147°20'0 0.0
2015-Apr-19 21:15S 43°07' E 147°20'0 0.0
2015-Apr-19 20:27S 43°07' E 147°20'0 0.0
2015-Apr-19 19:28S 43°07' E 147°20'0 0.0
2015-Apr-19 13:27S 43°07' E 147°20'0 0.0
2015-Apr-19 09:30S 43°07' E 147°20'0 0.0
2015-Apr-19 08:03S 43°07' E 147°20'0 0.0
2015-Apr-19 07:28S 43°07' E 147°20'0 0.0
2015-Apr-19 06:21S 43°07' E 147°20'0 0.4
2015-Apr-19 05:29S 43°08' E 147°20'2 2.1
2015-Apr-19 04:32S 43°08' E 147°18'10 2.4
2015-Apr-19 00:27S 43°11' E 147°05'  
Track history (hours):
 
Tides and Currents Weather Stations Pressure Air Temp Water Temp Dewpoint Dewpoint Depression Visibility Wind Speed Wind Dir Waves Ship Positions

Barefoot

Owner: Content, David W, Seattle, WA. More information available from US FCC via Universal Licensing System and Coast Guard Vessel Documentation Center.

Last reported at 2015-Apr-28 02:21 UTC. Time now 2015-May-03 09:46 UTC.
Position S 42°50' E 147°18'.

Length 13 m.

Type: Sailing vessel. MMSI: 367433390.

Date/timePositionNaut miles runAvg speedWind from/ knotsBaromVisibWave heightAir tempDewpointWater temp
2015-Apr-28 02:21S 42°50' E 147°18'  
2015-Apr-25 00:09S 42°50' E 147°18'0 0.0
2015-Apr-24 23:33S 42°50' E 147°18'0 0.0
2015-Apr-23 08:08S 42°50' E 147°18'0 0.0
2015-Apr-23 07:32S 42°50' E 147°18'0 0.0
2015-Apr-21 05:17S 42°50' E 147°18'2 2.9
2015-Apr-21 04:33S 42°51' E 147°20'5 5.3
2015-Apr-21 03:33S 42°56' E 147°22'5 5.2
2015-Apr-21 02:33S 43°01' E 147°21'5 5.1
2015-Apr-21 01:30S 43°06' E 147°18'2 0.5
2015-Apr-20 22:09S 43°07' E 147°20'0 0.0
2015-Apr-20 04:07S 43°08' E 147°20'1 2.2
2015-Apr-20 03:32S 43°08' E 147°18'2 2.4
2015-Apr-20 02:31S 43°08' E 147°15'4 3.8
2015-Apr-20 01:32S 43°08' E 147°20'0 0.1
2015-Apr-19 22:06S 43°07' E 147°20'0 0.0
2015-Apr-19 21:15S 43°07' E 147°20'0 0.0
2015-Apr-19 20:27S 43°07' E 147°20'0 0.0
2015-Apr-19 19:28S 43°07' E 147°20'0 0.0
2015-Apr-19 13:27S 43°07' E 147°20'0 0.0
2015-Apr-19 09:30S 43°07' E 147°20'0 0.0
2015-Apr-19 08:03S 43°07' E 147°20'0 0.0
2015-Apr-19 07:28S 43°07' E 147°20'0 0.0
2015-Apr-19 06:21S 43°07' E 147°20'0 0.4
2015-Apr-19 05:29S 43°08' E 147°20'2 2.1
2015-Apr-19 04:32S 43°08' E 147°18'10 2.4
2015-Apr-19 00:27S 43°11' E 147°05'  

Dump ship's entire track history